createdAt,value
2017-12-11T00:01:49.528Z,95967
2017-12-11T00:04:17.701Z,95978
2017-12-11T00:06:45.885Z,95971
2017-12-11T00:09:14.169Z,95961
2017-12-11T00:11:42.341Z,95960
2017-12-11T00:14:10.493Z,95958
2017-12-11T00:16:38.800Z,95962
2017-12-11T00:19:06.993Z,95977
2017-12-11T00:21:35.269Z,95966
2017-12-11T00:24:04.155Z,95960
2017-12-11T00:26:33.178Z,95956
2017-12-11T00:29:01.362Z,95958
2017-12-11T00:31:30.443Z,95967
2017-12-11T00:33:58.827Z,95974
2017-12-11T00:36:27.012Z,95983
2017-12-11T00:38:56.972Z,95977
2017-12-11T00:41:25.279Z,95983
2017-12-11T00:43:57.360Z,96004
2017-12-11T00:46:25.643Z,96010
2017-12-11T00:48:53.841Z,96023
2017-12-11T00:51:27.166Z,96026
2017-12-11T00:53:55.440Z,96044
2017-12-11T00:56:23.831Z,96041
2017-12-11T00:58:52.078Z,96053
2017-12-11T01:01:27.108Z,96058
2017-12-11T01:04:00.871Z,96061
2017-12-11T01:06:29.229Z,96061
2017-12-11T01:09:12.607Z,96068
2017-12-11T01:11:44.760Z,96064
2017-12-11T01:14:13.792Z,96068
2017-12-11T01:16:45.630Z,96064
2017-12-11T01:19:18.687Z,96064
2017-12-11T01:21:47.798Z,96062
2017-12-11T01:24:16.818Z,96061
2017-12-11T01:26:45.063Z,96063
2017-12-11T01:29:14.334Z,96071
2017-12-11T01:31:42.645Z,96071
2017-12-11T01:34:11.013Z,96085
2017-12-11T01:36:44.270Z,96077
2017-12-11T01:39:13.343Z,96067
2017-12-11T01:41:41.577Z,96070
2017-12-11T01:44:09.866Z,96058
2017-12-11T01:46:48.683Z,96062
2017-12-11T01:49:16.912Z,96056
2017-12-11T01:51:47.859Z,96074
2017-12-11T01:54:16.040Z,96074
2017-12-11T01:56:44.339Z,96082
2017-12-11T01:59:12.605Z,96078
2017-12-11T02:01:40.885Z,96083
2017-12-11T02:04:09.158Z,96082
2017-12-11T02:06:39.745Z,96084
2017-12-11T02:09:11.742Z,96078
2017-12-11T02:11:39.973Z,96074
2017-12-11T02:14:08.198Z,96064
2017-12-11T02:16:38.193Z,96044
2017-12-11T02:19:10.023Z,96039
2017-12-11T02:21:38.302Z,96030
2017-12-11T02:24:06.464Z,96013
2017-12-11T02:26:34.749Z,96012
2017-12-11T02:29:03.024Z,96026
2017-12-11T02:31:32.052Z,96026
2017-12-11T02:34:01.019Z,96042
2017-12-11T02:36:29.317Z,96036
2017-12-11T02:38:58.317Z,96060
2017-12-11T02:41:27.938Z,96079
2017-12-11T02:43:56.253Z,96067
2017-12-11T02:46:24.500Z,96088
2017-12-11T02:48:52.747Z,96083
2017-12-11T02:51:22.092Z,96075
2017-12-11T02:53:50.409Z,96082
2017-12-11T02:56:18.606Z,96078
2017-12-11T02:58:48.464Z,96077
2017-12-11T03:01:16.742Z,96063
2017-12-11T03:03:45.969Z,96061
2017-12-11T03:06:14.158Z,96078
2017-12-11T03:08:43.171Z,96095
2017-12-11T03:11:11.436Z,96105
2017-12-11T03:13:40.886Z,96095
2017-12-11T03:16:09.081Z,96073
2017-12-11T03:18:37.277Z,96115
2017-12-11T03:21:05.565Z,96113
2017-12-11T03:23:34.572Z,96094
2017-12-11T03:26:02.778Z,96106
2017-12-11T03:28:31.135Z,96130
2017-12-11T03:31:00.399Z,96145
2017-12-11T03:33:28.615Z,96153
2017-12-11T03:35:57.453Z,96153
2017-12-11T03:38:25.657Z,96154
2017-12-11T03:40:53.974Z,96164
2017-12-11T03:43:22.243Z,96168
2017-12-11T03:45:50.539Z,96168
2017-12-11T03:48:18.803Z,96162
2017-12-11T03:50:46.957Z,96163
2017-12-11T03:53:15.129Z,96169
2017-12-11T03:55:44.106Z,96173
2017-12-11T03:58:13.087Z,96168
2017-12-11T04:00:42.162Z,96182
2017-12-11T04:03:10.410Z,96187
2017-12-11T04:05:38.548Z,96188
2017-12-11T04:08:06.768Z,96183
2017-12-11T04:10:34.917Z,96186
2017-12-11T04:13:03.211Z,96182
2017-12-11T04:15:31.443Z,96193
2017-12-11T04:17:59.669Z,96188
2017-12-11T04:20:27.910Z,96182
2017-12-11T04:22:56.105Z,96196
2017-12-11T04:25:24.295Z,96195
2017-12-11T04:27:52.462Z,96195
2017-12-11T04:30:20.637Z,96191
2017-12-11T04:32:48.806Z,96190
2017-12-11T04:35:16.981Z,96187
2017-12-11T04:37:45.209Z,96193
2017-12-11T04:40:13.426Z,96186
2017-12-11T04:42:41.643Z,96184
2017-12-11T04:45:09.814Z,96174
2017-12-11T04:47:38.027Z,96171
2017-12-11T04:50:06.976Z,96159
2017-12-11T04:52:35.210Z,96154
2017-12-11T04:55:04.212Z,96159
2017-12-11T04:57:32.421Z,96166
2017-12-11T05:00:00.666Z,96156
2017-12-11T05:02:29.574Z,96142
2017-12-11T05:04:57.914Z,96148
2017-12-11T05:07:26.305Z,96144
2017-12-11T05:09:54.606Z,96139
2017-12-11T05:12:22.957Z,96143
2017-12-11T05:14:52.036Z,96142
2017-12-11T05:17:20.412Z,96137
2017-12-11T05:19:48.736Z,96121
2017-12-11T05:22:17.760Z,96119
2017-12-11T05:24:46.041Z,96132
2017-12-11T05:27:14.372Z,96124
2017-12-11T05:29:44.442Z,96109
2017-12-11T05:32:12.723Z,96103
2017-12-11T05:34:40.946Z,96097
2017-12-11T05:37:10.235Z,96098
2017-12-11T05:39:38.427Z,96089
2017-12-11T05:42:06.698Z,96078
2017-12-11T05:44:34.928Z,96061
2017-12-11T05:47:13.040Z,96076
2017-12-11T05:49:41.945Z,96083
2017-12-11T05:52:10.920Z,96084
2017-12-11T05:54:39.210Z,96097
2017-12-11T05:57:08.315Z,96102
2017-12-11T05:59:36.611Z,96097
2017-12-11T06:02:05.028Z,96087
2017-12-11T06:04:34.147Z,96083
2017-12-11T06:07:03.404Z,96086
2017-12-11T06:09:31.857Z,96097
2017-12-11T06:12:00.109Z,96090
2017-12-11T06:14:28.510Z,96096
2017-12-11T06:16:57.530Z,96082
2017-12-11T06:19:26.023Z,96089
2017-12-11T06:21:54.489Z,96073
2017-12-11T06:24:22.664Z,96093
2017-12-11T06:26:54.204Z,96077
2017-12-11T06:29:22.433Z,96076
2017-12-11T06:31:50.965Z,96082
2017-12-11T06:34:19.215Z,96080
2017-12-11T06:36:48.600Z,96082
2017-12-11T06:39:19.979Z,96090
2017-12-11T06:41:48.909Z,96077
2017-12-11T06:44:18.431Z,96082
2017-12-11T06:46:48.309Z,96069
2017-12-11T06:49:17.524Z,96069
2017-12-11T06:51:56.753Z,96064
2017-12-11T06:54:25.221Z,96068
2017-12-11T06:56:55.427Z,96068
2017-12-11T06:59:24.495Z,96058
2017-12-11T07:01:52.976Z,96057
2017-12-11T07:04:21.278Z,96056
2017-12-11T07:06:50.247Z,96043
2017-12-11T07:09:18.740Z,96044
2017-12-11T07:11:47.111Z,96043
2017-12-11T07:14:15.416Z,96044
2017-12-11T07:16:43.633Z,96040
2017-12-11T07:19:11.871Z,96036
2017-12-11T07:21:40.872Z,96040
2017-12-11T07:24:09.145Z,96035
2017-12-11T07:26:38.160Z,96048
2017-12-11T07:29:06.493Z,96049
2017-12-11T07:31:34.680Z,96045
2017-12-11T07:34:03.002Z,96051
2017-12-11T07:36:31.188Z,96048
2017-12-11T07:38:59.490Z,96055
2017-12-11T07:41:28.702Z,96054
2017-12-11T07:43:57.003Z,96044
2017-12-11T07:46:25.262Z,96055
2017-12-11T07:48:53.492Z,96063
2017-12-11T07:51:21.642Z,96057
2017-12-11T07:53:49.880Z,96064
2017-12-11T07:56:18.147Z,96059
2017-12-11T07:58:47.519Z,96044
2017-12-11T08:01:15.781Z,96043
2017-12-11T08:03:44.078Z,96013
2017-12-11T08:06:12.339Z,96012
2017-12-11T08:08:40.701Z,95999
2017-12-11T08:11:08.992Z,96007
2017-12-11T08:13:37.333Z,96003
2017-12-11T08:16:06.353Z,95991
2017-12-11T08:18:34.547Z,95996
2017-12-11T08:21:03.575Z,95998
2017-12-11T08:23:31.768Z,95997
2017-12-11T08:25:59.908Z,95998
2017-12-11T08:28:28.156Z,96003
2017-12-11T08:30:56.391Z,96005
2017-12-11T08:33:24.651Z,95991
2017-12-11T08:35:52.973Z,95990
2017-12-11T08:38:21.184Z,95995
2017-12-11T08:40:49.379Z,96010
2017-12-11T08:43:17.595Z,96005
2017-12-11T08:45:45.842Z,96003
2017-12-11T08:48:14.056Z,95998
2017-12-11T08:50:43.116Z,95986
2017-12-11T08:53:12.108Z,95985
2017-12-11T08:55:40.790Z,95996
2017-12-11T08:58:10.489Z,96000
2017-12-11T09:00:47.621Z,95999
2017-12-11T09:03:15.864Z,95989
2017-12-11T09:05:45.144Z,95979
2017-12-11T09:08:13.372Z,95979
2017-12-11T09:10:41.606Z,95977
2017-12-11T09:13:09.785Z,95965
2017-12-11T09:15:38.055Z,95965
2017-12-11T09:18:06.278Z,95979
2017-12-11T09:20:36.859Z,95973
2017-12-11T09:23:05.022Z,95953
2017-12-11T09:25:34.070Z,95940
2017-12-11T09:28:02.430Z,95948
2017-12-11T09:30:30.590Z,95941
2017-12-11T09:32:59.869Z,95945
2017-12-11T09:35:28.131Z,95946
2017-12-11T09:37:56.416Z,95926
2017-12-11T09:40:24.773Z,95943
2017-12-11T09:42:53.033Z,95931
2017-12-11T09:45:22.028Z,95916
2017-12-11T09:47:51.121Z,95915
2017-12-11T09:50:19.309Z,95920
2017-12-11T09:52:48.998Z,95901
2017-12-11T09:55:17.959Z,95939
2017-12-11T09:57:47.432Z,95924
2017-12-11T10:00:15.804Z,95915
2017-12-11T10:02:44.034Z,95910
2017-12-11T10:05:12.995Z,95911
2017-12-11T10:07:41.360Z,95909
2017-12-11T10:10:09.595Z,95900
2017-12-11T10:12:37.819Z,95895
2017-12-11T10:15:06.046Z,95894
2017-12-11T10:17:34.479Z,95876
2017-12-11T10:20:02.771Z,95869
2017-12-11T10:22:30.960Z,95870
2017-12-11T10:25:00.400Z,95857
2017-12-11T10:27:28.609Z,95849
2017-12-11T10:29:56.865Z,95844
2017-12-11T10:32:25.855Z,95856
2017-12-11T10:34:54.275Z,95842
2017-12-11T10:37:22.489Z,95818
2017-12-11T10:39:51.617Z,95841
2017-12-11T10:42:20.567Z,95830
2017-12-11T10:44:48.727Z,95825
2017-12-11T10:47:16.939Z,95822
2017-12-11T10:49:45.900Z,95810
2017-12-11T10:52:14.222Z,95815
2017-12-11T10:54:42.464Z,95822
2017-12-11T10:57:11.443Z,95790
2017-12-11T10:59:39.702Z,95788
2017-12-11T11:02:07.875Z,95795
2017-12-11T11:04:36.107Z,95799
2017-12-11T11:07:04.327Z,95802
2017-12-11T11:09:32.477Z,95799
2017-12-11T11:12:00.741Z,95800
2017-12-11T11:14:29.062Z,95803
2017-12-11T11:16:57.431Z,95789
2017-12-11T11:19:27.114Z,95785
2017-12-11T11:21:59.053Z,95783
2017-12-11T11:24:27.245Z,95778
2017-12-11T11:26:58.216Z,95763
2017-12-11T11:29:26.355Z,95780
2017-12-11T11:31:55.335Z,95781
2017-12-11T11:34:24.318Z,95773
2017-12-11T11:36:53.498Z,95772
2017-12-11T11:39:31.650Z,95758
2017-12-11T11:42:00.062Z,95752
2017-12-11T11:44:28.360Z,95734
2017-12-11T11:46:57.220Z,95735
2017-12-11T11:49:26.552Z,95733
2017-12-11T11:51:54.862Z,95725
2017-12-11T11:54:23.367Z,95711
2017-12-11T11:56:51.706Z,95706
2017-12-11T11:59:19.886Z,95697
2017-12-11T12:01:49.242Z,95711
2017-12-11T12:04:17.655Z,95722
2017-12-11T12:06:53.311Z,95705
2017-12-11T12:09:38.931Z,95699
2017-12-11T12:12:11.619Z,95716
2017-12-11T12:14:53.742Z,95699
2017-12-11T12:17:33.795Z,95698
2017-12-11T12:20:12.944Z,95720
2017-12-11T12:22:43.274Z,95720
2017-12-11T12:25:12.329Z,95733
2017-12-11T12:27:44.482Z,95721
2017-12-11T12:30:13.947Z,95723
2017-12-11T12:32:42.308Z,95705
2017-12-11T12:35:11.289Z,95708
2017-12-11T12:37:40.953Z,95719
2017-12-11T12:40:10.793Z,95708
2017-12-11T12:42:39.121Z,95689
2017-12-11T12:45:07.695Z,95650
2017-12-11T12:47:46.226Z,95613
2017-12-11T12:50:15.325Z,95604
2017-12-11T12:52:53.637Z,95616
2017-12-11T12:55:22.936Z,95627
2017-12-11T12:57:51.317Z,95621
2017-12-11T13:00:19.659Z,95639
2017-12-11T13:02:47.890Z,95651
2017-12-11T13:05:24.911Z,95633
2017-12-11T13:07:54.554Z,95649
2017-12-11T13:10:23.122Z,95659
2017-12-11T13:12:55.185Z,95648
2017-12-11T13:15:37.723Z,95639
2017-12-11T13:18:09.688Z,95631
2017-12-11T13:20:37.909Z,95632
2017-12-11T13:23:06.773Z,95613
2017-12-11T13:25:35.775Z,95598
2017-12-11T13:28:04.949Z,95616
2017-12-11T13:30:33.209Z,95625
2017-12-11T13:33:01.364Z,95616
2017-12-11T13:35:29.554Z,95600
2017-12-11T13:37:57.943Z,95591
2017-12-11T13:40:26.098Z,95577
2017-12-11T13:42:54.235Z,95567
2017-12-11T13:45:22.397Z,95572
2017-12-11T13:47:50.547Z,95562
2017-12-11T13:50:18.664Z,95563
2017-12-11T13:52:47.576Z,95589
2017-12-11T13:55:15.741Z,95601
2017-12-11T13:57:44.168Z,95610
2017-12-11T14:00:12.339Z,95629
2017-12-11T14:02:41.378Z,95664
2017-12-11T14:05:10.133Z,95660
2017-12-11T14:07:38.386Z,95680
2017-12-11T14:10:06.614Z,95673
2017-12-11T14:12:34.905Z,95655
2017-12-11T14:15:03.284Z,95636
2017-12-11T14:17:31.668Z,95639
2017-12-11T14:19:59.969Z,95621
2017-12-11T14:22:29.491Z,95621
2017-12-11T14:24:57.720Z,95631
2017-12-11T14:27:29.293Z,95670
2017-12-11T14:29:58.357Z,95684
2017-12-11T14:32:26.573Z,95714
2017-12-11T14:34:54.804Z,95746
2017-12-11T14:37:33.054Z,95759
2017-12-11T14:40:02.208Z,95749
2017-12-11T15:14:11.678Z,95817
2017-12-11T15:16:52.852Z,95808
2017-12-11T15:22:19.919Z,95833
2017-12-11T15:24:53.072Z,95841
2017-12-11T15:27:26.618Z,95854
2017-12-11T15:30:00.943Z,95826
2017-12-11T15:32:31.327Z,95832
2017-12-11T15:35:01.601Z,95846
2017-12-11T15:40:10.408Z,95848
2017-12-11T15:42:49.270Z,95877
2017-12-11T15:51:53.200Z,95916
2017-12-11T15:54:26.963Z,95922
2017-12-11T15:56:57.636Z,95934
2017-12-11T15:59:26.686Z,95920
2017-12-11T16:01:57.595Z,95930
2017-12-11T16:04:28.665Z,95934
2017-12-11T16:07:10.270Z,95953
2017-12-11T16:09:40.821Z,95957
2017-12-11T16:12:19.368Z,95956
2017-12-11T16:14:52.972Z,95935
2017-12-11T16:17:39.140Z,95935
2017-12-11T16:20:10.225Z,95931
2017-12-11T16:22:40.625Z,95934
2017-12-11T16:25:24.665Z,95955
2017-12-11T16:27:55.864Z,95947
2017-12-11T16:30:29.614Z,95951
2017-12-11T16:33:02.337Z,95951
2017-12-11T16:35:31.838Z,95956
2017-12-11T16:38:11.410Z,95963
2017-12-11T16:40:41.051Z,95956
2017-12-11T16:43:12.043Z,95952
2017-12-11T16:45:50.462Z,95961
2017-12-11T16:48:24.015Z,95955
2017-12-11T16:51:15.496Z,95965
2017-12-11T16:53:46.907Z,95970
2017-12-11T16:56:16.865Z,95966
2017-12-11T16:59:05.479Z,95971
2017-12-11T17:01:35.747Z,95967
2017-12-11T17:04:06.027Z,95971
2017-12-11T17:06:38.182Z,95973
2017-12-11T17:09:09.413Z,95982
2017-12-11T17:11:40.592Z,95973
2017-12-11T17:14:19.895Z,95980
2017-12-11T17:16:49.349Z,95988
2017-12-11T17:19:20.561Z,95986
2017-12-11T17:21:54.971Z,95997
2017-12-11T17:24:24.268Z,96005
2017-12-11T17:26:58.532Z,96015
2017-12-11T17:29:50.441Z,96005
2017-12-11T17:32:20.338Z,95998
2017-12-11T17:35:01.881Z,96000
2017-12-11T17:37:31.211Z,95989
2017-12-11T17:40:06.123Z,95995
2017-12-11T17:42:36.573Z,95989
2017-12-11T17:45:06.953Z,96002
2017-12-11T17:47:47.943Z,96012
2017-12-11T17:50:17.965Z,96015
2017-12-11T17:52:51.746Z,96008
2017-12-11T17:55:21.550Z,96018
2017-12-11T17:58:00.409Z,96031
2017-12-11T18:00:32.409Z,96029
2017-12-11T18:03:04.429Z,96037
2017-12-11T18:05:34.011Z,96037
2017-12-11T18:08:13.885Z,96036
2017-12-11T18:10:52.122Z,96029
2017-12-11T18:13:22.838Z,96006
2017-12-11T18:15:54.034Z,96018
2017-12-11T18:18:26.638Z,96019
2017-12-11T18:21:01.418Z,95995
2017-12-11T18:23:34.900Z,96008
2017-12-11T18:26:08.340Z,96012
2017-12-11T18:29:03.882Z,96011
2017-12-11T18:31:33.431Z,96020
2017-12-11T18:34:03.379Z,96005
2017-12-11T18:36:33.662Z,96009
2017-12-11T18:39:12.564Z,96008
2017-12-11T18:41:41.898Z,96000
2017-12-11T18:44:23.798Z,96009
2017-12-11T18:46:53.438Z,96025
2017-12-11T18:49:21.837Z,96029
2017-12-11T18:51:51.002Z,96027
2017-12-11T18:54:30.359Z,96034
2017-12-11T18:57:09.940Z,96045
2017-12-11T18:59:48.404Z,96051
2017-12-11T19:02:18.546Z,96047
2017-12-11T19:04:48.828Z,96065
2017-12-11T19:07:25.155Z,96052
2017-12-11T19:09:56.930Z,96052
2017-12-11T19:12:28.286Z,96064
2017-12-11T19:15:07.889Z,96065
2017-12-11T19:17:36.924Z,96086
2017-12-11T19:20:06.481Z,96095
2017-12-11T19:22:35.769Z,96109
2017-12-11T19:25:05.422Z,96101
2017-12-11T19:27:35.560Z,96110
2017-12-11T19:30:05.873Z,96107
2017-12-11T19:32:57.487Z,96115
2017-12-11T19:35:34.614Z,96100
2017-12-11T19:38:04.381Z,96117
2017-12-11T19:40:34.597Z,96112
2017-12-11T19:43:03.736Z,96120
2017-12-11T19:45:32.259Z,96125
2017-12-11T19:48:00.939Z,96126
2017-12-11T19:50:31.299Z,96123
2017-12-11T19:53:04.640Z,96129
2017-12-11T19:55:36.663Z,96144
2017-12-11T19:58:07.725Z,96127
2017-12-11T20:00:37.864Z,96124
2017-12-11T20:03:16.525Z,96111
2017-12-11T20:05:48.246Z,96128
2017-12-11T20:08:27.238Z,96108
2017-12-11T20:10:57.599Z,96118
2017-12-11T20:13:28.012Z,96125
2017-12-11T20:15:58.011Z,96120
2017-12-11T20:18:28.434Z,96116
2017-12-11T20:20:58.010Z,96127
2017-12-11T20:23:29.573Z,96134
2017-12-11T20:25:58.746Z,96131
2017-12-11T20:28:37.795Z,96125
2017-12-11T20:31:06.566Z,96128
2017-12-11T20:33:36.177Z,96131
2017-12-11T20:36:05.830Z,96138
2017-12-11T20:38:44.149Z,96145
2017-12-11T20:41:13.984Z,96142
2017-12-11T20:43:43.390Z,96132
2017-12-11T20:46:13.763Z,96133
2017-12-11T20:48:43.022Z,96145
2017-12-11T20:51:11.734Z,96145
2017-12-11T20:53:41.345Z,96151
2017-12-11T20:56:10.286Z,96161
2017-12-11T20:58:39.005Z,96160
2017-12-11T21:01:09.070Z,96161
2017-12-11T21:03:46.587Z,96168
2017-12-11T21:06:25.700Z,96177
2017-12-11T21:09:14.848Z,96174
2017-12-11T21:11:44.000Z,96192
2017-12-11T21:14:13.050Z,96201
2017-12-11T21:16:44.101Z,96195
2017-12-11T21:19:15.003Z,96208
2017-12-11T21:21:44.917Z,96201
2017-12-11T21:24:13.406Z,96205
2017-12-11T21:26:54.323Z,96200
2017-12-11T21:29:24.627Z,96207
2017-12-11T21:31:54.300Z,96201
2017-12-11T21:34:23.728Z,96184
2017-12-11T21:36:53.440Z,96196
2017-12-11T21:53:05.217Z,96190
2017-12-11T21:55:36.429Z,96189
2017-12-11T21:58:16.077Z,96178
2017-12-11T22:00:45.609Z,96188
2017-12-11T22:03:13.929Z,96198
2017-12-11T22:05:47.572Z,96200
2017-12-11T22:08:27.612Z,96202
2017-12-11T22:11:06.756Z,96214
2017-12-11T22:13:36.732Z,96217
2017-12-11T22:16:11.784Z,96220
2017-12-11T22:18:40.157Z,96222
2017-12-11T22:21:11.008Z,96218
2017-12-11T22:23:43.019Z,96221
2017-12-11T22:26:12.408Z,96234
2017-12-11T22:28:42.481Z,96246
2017-12-11T22:31:15.719Z,96238
2017-12-11T22:33:45.611Z,96244
2017-12-11T22:36:17.241Z,96246
2017-12-11T22:38:46.434Z,96249
2017-12-11T22:41:18.673Z,96255
2017-12-11T22:43:48.088Z,96265
2017-12-11T22:46:18.506Z,96268
2017-12-11T22:48:49.395Z,96279
2017-12-11T22:51:18.687Z,96277
2017-12-11T22:53:48.857Z,96282
2017-12-11T22:56:17.340Z,96284
2017-12-11T22:58:56.330Z,96290
2017-12-11T23:01:26.785Z,96298
2017-12-11T23:03:54.990Z,96282
2017-12-11T23:06:23.246Z,96303
2017-12-11T23:08:51.410Z,96306
2017-12-11T23:11:19.690Z,96297
2017-12-11T23:13:47.926Z,96310
2017-12-11T23:16:16.936Z,96295
2017-12-11T23:18:49.277Z,96307
2017-12-11T23:21:17.565Z,96313
2017-12-11T23:23:50.026Z,96316
2017-12-11T23:26:20.048Z,96325
2017-12-11T23:28:54.973Z,96329
2017-12-11T23:31:24.451Z,96322
2017-12-11T23:33:57.591Z,96323
2017-12-11T23:36:31.636Z,96317
2017-12-11T23:39:02.876Z,96328
2017-12-11T23:41:31.221Z,96336
2017-12-11T23:44:15.022Z,96335
2017-12-11T23:46:44.052Z,96324
2017-12-11T23:49:12.838Z,96343
2017-12-11T23:51:41.897Z,96348
2017-12-11T23:54:27.827Z,96346
2017-12-11T23:57:01.632Z,96364
2017-12-11T23:59:33.832Z,96356
